Time;durP1;ratioP1;P1;durP2;ratioP2;P2;SDS_P1;SDS_P2;PMS_P1;PMS_P2;Temp;Humidity;BMP_temperature;BMP_pressure;BME280_temperature;BME280_humidity;BME280_pressure;Samples;Min_cycle;Max_cycle;Signal;HPM_P1;HPM_P2
2022/02/03 00:00:31;;;;;;;1.37;0.90;;;24.00;54.40;;;;;;6210039;23;20890;-84
2022/02/03 00:16:39;;;;;;;0.90;0.70;;;24.00;54.40;;;;;;6236118;23;20442;-84
2022/02/03 00:24:50;;;;;;;3.00;1.23;;;24.00;54.30;;;;;;6239707;23;20404;-84
2022/02/03 00:27:50;;;;;;;1.53;0.90;;;24.00;54.40;;;;;;6210564;23;20378;-84
2022/02/03 00:31:21;;;;;;;;;;;;;;;;;;;;;
2022/02/03 00:37:28;;;;;;;1.90;1.10;;;24.00;54.50;;;;;;6086362;23;20379;-84
2022/02/03 00:48:21;;;;;;;1.00;0.80;;;24.00;54.40;;;;;;6236198;23;20377;-84
2022/02/03 00:50:50;;;;;;;1.10;0.90;;;24.00;54.30;;;;;;6210313;23;20393;-84
2022/02/03 00:53:17;;;;;;;1.37;0.90;;;24.00;54.30;;;;;;6236593;23;20764;-84
2022/02/03 00:55:51;;;;;;;1.20;0.90;;;24.00;54.30;;;;;;6210757;23;20390;-84
2022/02/03 00:58:20;;;;;;;1.50;1.00;;;24.00;54.40;;;;;;6210328;23;20385;-84
2022/02/03 01:00:51;;;;;;;1.10;0.80;;;24.00;54.30;;;;;;6236378;23;20377;-84
2022/02/03 01:03:19;;;;;;;2.07;1.00;;;24.00;54.20;;;;;;6235539;23;20408;-84
2022/02/03 01:05:47;;;;;;;1.40;0.90;;;23.90;54.10;;;;;;6210416;23;20400;-84
2022/02/03 01:08:21;;;;;;;1.33;1.00;;;24.00;54.20;;;;;;6210675;23;20390;-84
2022/02/03 01:10:55;;;;;;;1.20;0.90;;;23.90;54.20;;;;;;6209665;23;20393;-84
2022/02/03 01:16:59;;;;;;;1.67;0.90;;;23.90;54.10;;;;;;6237786;23;20363;-85
2022/02/03 01:21:40;;;;;;;1.27;1.03;;;23.90;54.10;;;;;;6238402;23;20378;-84
2022/02/03 01:44:27;;;;;;;1.30;1.00;;;23.80;54.30;;;;;;6116615;23;20458;-84
2022/02/03 01:47:11;;;;;;;1.10;0.90;;;23.80;54.30;;;;;;6116284;23;20390;-84
2022/02/03 01:52:35;;;;;;;2.40;1.00;;;23.80;54.30;;;;;;6072337;23;20417;-84
2022/02/03 01:55:05;;;;;;;1.60;1.20;;;23.80;54.30;;;;;;6091726;23;20398;-84
2022/02/03 01:57:42;;;;;;;1.93;0.90;;;23.80;54.20;;;;;;6115441;23;20381;-84
2022/02/03 02:00:13;;;;;;;1.13;0.87;;;23.80;54.20;;;;;;6091873;23;20814;-83
2022/02/03 02:03:12;;;;;;;1.53;0.90;;;23.80;54.20;;;;;;6092194;23;20461;-83
2022/02/03 02:05:59;;;;;;;1.33;1.00;;;23.80;54.20;;;;;;6210381;23;20386;-83
2022/02/03 02:08:37;;;;;;;1.00;0.80;;;23.80;54.30;;;;;;6210498;23;20390;-83
2022/02/03 02:11:16;;;;;;;1.40;0.80;;;23.80;54.30;;;;;;6211776;23;20397;-84
2022/02/03 02:40:05;;;;;;;1.33;0.90;;;23.80;54.30;;;;;;6237100;23;20450;-84
2022/02/03 02:42:40;;;;;;;1.10;0.80;;;23.80;54.40;;;;;;6210536;23;20394;-83
2022/02/03 02:45:11;;;;;;;1.40;1.00;;;23.80;54.40;;;;;;6210904;23;20392;-83
2022/02/03 02:47:57;;;;;;;1.40;1.00;;;23.80;54.40;;;;;;6237223;23;20691;-83
2022/02/03 02:50:53;;;;;;;1.00;0.77;;;23.80;54.40;;;;;;6236991;23;20357;-83
2022/02/03 02:53:42;;;;;;;1.27;0.80;;;23.80;54.40;;;;;;6209092;23;20419;-83
2022/02/03 02:56:27;;;;;;;1.20;0.90;;;23.80;54.30;;;;;;6236551;23;20378;-83
2022/02/03 03:30:19;;;;;;;1.10;0.77;;;23.70;54.10;;;;;;6143790;23;20739;-83
2022/02/03 03:33:19;;;;;;;1.60;1.10;;;23.70;54.10;;;;;;6144245;23;20476;-83
2022/02/03 03:38:18;;;;;;;1.10;0.90;;;23.70;54.20;;;;;;6145486;23;20372;-84
2022/02/03 03:40:54;;;;;;;1.20;0.90;;;23.70;54.20;;;;;;6163231;23;20382;-85
2022/02/03 03:43:40;;;;;;;1.40;1.03;;;23.70;54.20;;;;;;6237679;23;20365;-85
2022/02/03 03:46:25;;;;;;;1.90;1.00;;;23.70;54.10;;;;;;6235807;23;20405;-84
2022/02/03 03:49:23;;;;;;;1.10;0.80;;;23.70;54.10;;;;;;6237492;23;20374;-84
2022/02/03 03:52:02;;;;;;;1.30;0.90;;;23.70;54.10;;;;;;6211350;23;20420;-84
2022/02/03 03:54:41;;;;;;;1.30;0.90;;;23.70;54.20;;;;;;6210897;23;20402;-84
2022/02/03 03:57:29;;;;;;;1.00;0.87;;;23.70;54.20;;;;;;6237005;23;20355;-84
2022/02/03 04:30:53;;;;;;;1.60;0.97;;;23.60;54.20;;;;;;6119487;23;20887;-84
2022/02/03 04:42:14;;;;;;;1.33;0.90;;;23.60;54.20;;;;;;6115502;23;20427;-85
2022/02/03 04:52:12;;;;;;;1.00;0.70;;;23.60;54.20;;;;;;6117802;23;20373;-84
2022/02/03 04:58:41;;;;;;;0.90;0.70;;;23.60;54.30;;;;;;6055098;23;20398;-84
2022/02/03 05:12:52;;;;;;;1.00;0.70;;;23.50;54.30;;;;;;6088096;23;20433;-84
2022/02/03 05:15:47;;;;;;;1.33;0.83;;;23.50;54.30;;;;;;6065718;23;20394;-84
2022/02/03 05:19:32;;;;;;;1.73;0.97;;;23.50;54.30;;;;;;6087721;23;20475;-88
2022/02/03 05:32:09;;;;;;;1.50;0.90;;;23.50;54.30;;;;;;6168158;23;20457;-86
2022/02/03 05:51:14;;;;;;;1.00;0.90;;;23.50;54.30;;;;;;6238536;23;20387;-84
2022/02/03 06:14:42;;;;;;;1.43;1.10;;;23.60;54.20;;;;;;6174884;23;20352;-84
2022/02/03 06:17:31;;;;;;;3.77;1.97;;;23.60;54.20;;;;;;6149739;23;20419;-84
2022/02/03 06:22:51;;;;;;;1.47;1.10;;;23.60;54.20;;;;;;6154676;23;20391;-84
2022/02/03 06:27:47;;;;;;;5.07;1.60;;;23.60;54.10;;;;;;6174963;23;20822;-84
2022/02/03 06:30:18;;;;;;;3.63;1.40;;;23.60;54.10;;;;;;6150910;23;20160;-84
2022/02/03 06:32:43;;;;;;;2.80;1.37;;;23.60;54.10;;;;;;6150149;23;20420;-85
2022/02/03 06:35:12;;;;;;;1.23;1.13;;;23.70;54.10;;;;;;6179684;23;20435;-84
2022/02/03 06:37:38;;;;;;;1.77;1.10;;;23.70;54.10;;;;;;6210937;23;20206;-84
2022/02/03 06:40:07;;;;;;;2.10;1.30;;;23.70;54.10;;;;;;6210874;23;20390;-84
2022/02/03 06:42:33;;;;;;;1.77;1.33;;;23.70;54.10;;;;;;6210582;23;20390;-85
2022/02/03 06:45:10;;;;;;;3.63;1.30;;;23.70;54.10;;;;;;6210437;23;20386;-85
2022/02/03 06:48:16;;;;;;;1.87;1.37;;;23.70;54.10;;;;;;6210880;23;20369;-84
2022/02/03 06:50:40;;;;;;;1.50;1.20;;;23.70;54.10;;;;;;6234162;23;20390;-84
2022/02/03 06:53:19;;;;;;;2.80;1.30;;;23.70;54.10;;;;;;6235562;23;20425;-85
2022/02/03 06:55:51;;;;;;;2.90;1.40;;;23.70;54.20;;;;;;6213158;23;20374;-85
2022/02/03 06:58:56;;;;;;;2.70;1.30;;;23.70;54.20;;;;;;6210372;23;20382;-85
2022/02/03 07:01:17;;;;;;;1.80;1.07;;;23.70;54.20;;;;;;6233983;23;20409;-84
2022/02/03 07:03:57;;;;;;;2.13;0.90;;;23.70;54.20;;;;;;6210839;23;20438;-85
2022/02/03 07:06:26;;;;;;;1.57;1.27;;;23.70;54.20;;;;;;6189011;23;20417;-85
2022/02/03 07:08:54;;;;;;;2.67;1.57;;;23.70;54.20;;;;;;6210421;23;20386;-84
2022/02/03 07:11:22;;;;;;;2.33;1.30;;;23.70;54.20;;;;;;6212669;23;20397;-84
2022/02/03 07:13:48;;;;;;;1.30;1.10;;;23.70;54.20;;;;;;6212558;23;20430;-85
2022/02/03 07:16:17;;;;;;;1.43;1.17;;;23.70;54.20;;;;;;6211404;23;20381;-84
2022/02/03 07:18:43;;;;;;;1.37;1.07;;;23.70;54.30;;;;;;6213686;23;20388;-84
2022/02/03 07:21:28;;;;;;;1.70;1.07;;;23.70;54.30;;;;;;6238671;23;20363;-84
2022/02/03 07:23:54;;;;;;;2.80;1.97;;;23.70;54.20;;;;;;6211074;23;20365;-85
2022/02/03 07:26:22;;;;;;;2.63;1.97;;;23.70;54.00;;;;;;6237206;23;20378;-85
2022/02/03 07:28:48;;;;;;;2.67;1.70;;;23.70;54.10;;;;;;6237089;23;20444;-84
2022/02/03 07:31:14;;;;;;;4.93;1.40;;;23.70;54.10;;;;;;6210163;23;20378;-84
2022/02/03 07:33:41;;;;;;;1.80;1.33;;;23.80;54.10;;;;;;6210240;23;20230;-84
2022/02/03 07:36:08;;;;;;;1.20;1.10;;;23.80;54.10;;;;;;6186624;23;20383;-84
2022/02/03 07:38:34;;;;;;;3.07;1.50;;;23.70;54.00;;;;;;6237556;23;20389;-84
2022/02/03 07:41:00;;;;;;;1.60;1.33;;;23.80;54.10;;;;;;6185670;23;20390;-84
2022/02/03 07:46:49;;;;;;;1.80;1.20;;;23.80;54.10;;;;;;6236524;23;20747;-84
2022/02/03 07:49:15;;;;;;;1.27;0.93;;;23.70;54.00;;;;;;6235643;23;20377;-84
2022/02/03 07:51:42;;;;;;;2.80;1.50;;;23.70;54.00;;;;;;6236699;23;20425;-84
2022/02/03 07:54:11;;;;;;;2.50;1.33;;;23.80;54.10;;;;;;6236466;23;20366;-84
2022/02/03 07:56:39;;;;;;;2.73;1.60;;;23.70;53.90;;;;;;6235493;23;20453;-84
2022/02/03 07:59:05;;;;;;;2.60;1.33;;;23.80;54.00;;;;;;6210095;23;20381;-84
2022/02/03 08:01:33;;;;;;;1.80;1.43;;;23.70;53.90;;;;;;6210439;23;20446;-84
2022/02/03 08:04:03;;;;;;;2.40;1.10;;;23.70;53.90;;;;;;6209379;23;20427;-84
2022/02/03 08:06:33;;;;;;;1.70;1.23;;;23.70;53.90;;;;;;6209196;23;20382;-84
2022/02/03 08:09:06;;;;;;;3.10;2.90;;;23.80;54.00;;;;;;6234761;23;20378;-84
2022/02/03 08:11:46;;;;;;;1.97;1.37;;;23.70;53.90;;;;;;6236568;23;20373;-83
2022/02/03 08:14:17;;;;;;;3.67;1.13;;;23.70;53.90;;;;;;6185880;23;20378;-84
2022/02/03 08:29:12;;;;;;;2.33;1.60;;;23.70;54.00;;;;;;6237814;23;20440;-84
2022/02/03 08:32:22;;;;;;;1.93;1.50;;;23.70;54.10;;;;;;6215414;23;20460;-84
2022/02/03 08:34:43;;;;;;;2.10;1.47;;;23.70;54.10;;;;;;6230832;23;20370;-84
2022/02/03 08:37:09;;;;;;;2.77;1.77;;;23.70;54.10;;;;;;6238200;23;20420;-84
2022/02/03 08:39:44;;;;;;;1.87;1.30;;;23.70;54.10;;;;;;6237343;23;20370;-84
2022/02/03 08:42:21;;;;;;;2.30;1.23;;;23.70;54.10;;;;;;6232613;23;20413;-84
2022/02/03 08:44:48;;;;;;;2.53;1.20;;;23.70;54.40;;;;;;6211302;23;20404;-84
2022/02/03 08:47:14;;;;;;;1.73;1.13;;;23.70;54.10;;;;;;6237726;23;20370;-83
2022/02/03 08:49:46;;;;;;;1.83;1.10;;;23.70;54.10;;;;;;6238350;23;20370;-84
2022/02/03 08:52:17;;;;;;;2.53;1.20;;;23.70;54.10;;;;;;6211490;23;20479;-84
2022/02/03 09:56:36;;;;;;;7.40;3.87;;;23.70;53.70;;;;;;6084987;23;20389;-85
2022/02/03 09:59:12;;;;;;;6.40;4.30;;;23.70;53.80;;;;;;6087294;23;20393;-84
2022/02/03 10:01:43;;;;;;;6.03;4.40;;;23.70;53.80;;;;;;6063488;23;20439;-84
2022/02/03 10:04:18;;;;;;;5.67;4.00;;;23.70;53.80;;;;;;6086756;23;20371;-84
2022/02/03 10:06:56;;;;;;;5.43;4.33;;;23.70;53.80;;;;;;6087335;23;20446;-84
2022/02/03 10:09:42;;;;;;;6.53;4.73;;;23.70;53.80;;;;;;6086407;23;20423;-84
2022/02/03 10:12:09;;;;;;;9.63;4.80;;;23.70;53.90;;;;;;6087310;23;20426;-84
2022/02/03 10:14:40;;;;;;;6.83;4.37;;;23.70;53.90;;;;;;6087071;23;20387;-85
2022/02/03 10:17:07;;;;;;;7.57;5.03;;;23.70;53.90;;;;;;6086684;23;20694;-84
2022/02/03 10:19:40;;;;;;;6.23;4.60;;;23.70;54.00;;;;;;6086604;23;20390;-84
2022/02/03 10:22:18;;;;;;;7.60;4.40;;;23.70;54.00;;;;;;6086693;23;20413;-84
2022/02/03 10:24:49;;;;;;;8.80;4.53;;;23.80;54.10;;;;;;6087380;23;20390;-85
2022/02/03 10:27:39;;;;;;;6.43;5.00;;;23.80;54.10;;;;;;6086850;23;20394;-85
2022/02/03 10:30:28;;;;;;;7.43;4.60;;;23.80;54.10;;;;;;6086297;23;20748;-85
2022/02/03 10:32:57;;;;;;;7.53;5.20;;;23.70;54.00;;;;;;6136255;23;20429;-84
2022/02/03 10:35:36;;;;;;;5.53;4.03;;;23.80;54.10;;;;;;6210937;23;20379;-84
2022/02/03 10:55:25;;;;;;;31.07;15.90;;;23.80;54.20;;;;;;6185038;23;20353;-84
2022/02/03 10:58:25;;;;;;;91.90;33.47;;;23.80;54.30;;;;;;6174891;23;20349;-85
2022/02/03 11:09:06;;;;;;;337.50;108.97;;;23.80;54.20;;;;;;6174310;23;20387;-84
2022/02/03 11:11:39;;;;;;;353.50;113.17;;;23.80;54.20;;;;;;6175419;23;20368;-84
2022/02/03 11:14:06;;;;;;;369.70;123.07;;;23.80;54.10;;;;;;6150391;23;20375;-85
2022/02/03 11:16:37;;;;;;;409.63;135.27;;;23.80;54.00;;;;;;6149785;23;20399;-84
2022/02/03 11:19:09;;;;;;;391.53;131.60;;;23.80;54.00;;;;;;6150236;23;20376;-85
2022/02/03 11:21:36;;;;;;;445.03;152.73;;;23.80;54.00;;;;;;6149685;23;20378;-85
2022/02/03 11:24:13;;;;;;;454.47;154.63;;;23.80;54.00;;;;;;6149508;23;20399;-87
2022/02/03 11:27:06;;;;;;;455.30;161.53;;;23.80;54.10;;;;;;6228435;23;20401;-84
2022/02/03 11:53:01;;;;;;;458.13;194.57;;;23.80;54.20;;;;;;6247519;23;20406;-83
2022/02/03 11:58:44;;;;;;;474.83;197.77;;;23.80;54.30;;;;;;6237571;23;20852;-82
2022/02/03 12:21:00;;;;;;;431.77;181.60;;;23.90;54.60;;;;;;6247146;23;20358;-83
2022/02/03 12:26:29;;;;;;;422.83;177.63;;;23.90;54.60;;;;;;6237177;23;20370;-82
2022/02/03 12:29:05;;;;;;;429.80;185.80;;;23.90;54.60;;;;;;6214904;23;21373;-82
2022/02/03 12:38:20;;;;;;;412.97;170.37;;;23.90;54.40;;;;;;6236019;23;20845;-82
2022/02/03 12:40:54;;;;;;;420.30;171.30;;;23.90;54.40;;;;;;6235868;23;20366;-83
2022/02/03 12:43:35;;;;;;;408.87;172.73;;;23.90;54.40;;;;;;6236608;23;20361;-83
2022/02/03 12:46:03;;;;;;;400.87;169.37;;;23.90;54.40;;;;;;6236426;23;20338;-83
2022/02/03 12:48:31;;;;;;;380.93;163.60;;;23.90;54.30;;;;;;6209614;23;20373;-83
2022/02/03 12:51:01;;;;;;;405.10;171.63;;;23.90;54.30;;;;;;6209454;23;20402;-82
2022/02/03 12:53:46;;;;;;;407.03;163.77;;;23.90;54.30;;;;;;6235712;23;20389;-82
2022/02/03 12:56:12;;;;;;;394.70;160.77;;;23.90;54.30;;;;;;6235541;23;20397;-82
2022/02/03 12:58:43;;;;;;;396.50;161.67;;;23.90;54.40;;;;;;6236219;23;20378;-82
2022/02/03 13:01:15;;;;;;;390.67;157.10;;;23.90;54.30;;;;;;6185216;23;20233;-82
2022/02/03 13:03:47;;;;;;;379.20;159.60;;;23.90;54.30;;;;;;6209271;23;20378;-82
2022/02/03 13:06:17;;;;;;;366.63;154.27;;;23.90;54.30;;;;;;6209504;23;20725;-82
2022/02/03 13:08:50;;;;;;;377.10;157.93;;;23.90;54.40;;;;;;6238396;23;20374;-82
2022/02/03 13:11:26;;;;;;;363.53;155.20;;;23.90;54.40;;;;;;6211778;23;20468;-83
2022/02/03 13:14:50;;;;;;;346.63;157.17;;;23.90;54.40;;;;;;6238018;23;20401;-83
2022/02/03 13:16:59;;;;;;;354.93;149.60;;;23.90;54.40;;;;;;6221663;23;20436;-83
2022/02/03 13:25:32;;;;;;;339.63;147.90;;;23.90;54.50;;;;;;6146979;23;20360;-82
2022/02/03 13:28:04;;;;;;;327.57;145.40;;;23.90;54.50;;;;;;6121560;23;20434;-84
2022/02/03 13:31:02;;;;;;;318.63;143.73;;;23.90;54.60;;;;;;6146552;23;20396;-82
2022/02/03 13:33:39;;;;;;;325.33;144.50;;;23.90;54.60;;;;;;6171227;23;20467;-82
2022/02/03 13:36:26;;;;;;;338.97;142.20;;;23.90;54.50;;;;;;6147467;23;20376;-83
2022/02/03 13:39:05;;;;;;;307.63;135.17;;;23.90;54.50;;;;;;6124726;23;20485;-84
2022/02/03 13:41:38;;;;;;;298.03;134.90;;;23.90;54.50;;;;;;6144003;23;20412;-85
2022/02/03 13:44:05;;;;;;;304.07;134.37;;;23.90;54.50;;;;;;6144450;23;20377;-83
2022/02/03 13:46:43;;;;;;;292.73;131.33;;;23.90;54.50;;;;;;6145032;23;20377;-83
2022/02/03 13:49:24;;;;;;;296.80;132.47;;;23.90;54.50;;;;;;6144146;23;20357;-83
2022/02/03 13:52:10;;;;;;;272.90;125.80;;;23.90;54.50;;;;;;6142473;23;20452;-91
2022/02/03 14:16:22;;;;;;;269.70;113.97;;;23.90;54.70;;;;;;6236291;23;20401;-85
2022/02/03 14:21:22;;;;;;;238.53;113.67;;;23.90;54.60;;;;;;6230828;23;20370;-84
2022/02/03 14:29:40;;;;;;;232.20;102.50;;;24.00;54.60;;;;;;6111646;23;20406;-83
2022/02/03 14:32:07;;;;;;;229.20;105.23;;;24.00;54.70;;;;;;6188226;23;20429;-83
2022/02/03 14:34:35;;;;;;;239.30;109.90;;;24.00;54.70;;;;;;6203134;23;20401;-85
2022/02/03 14:42:08;;;;;;;232.83;103.17;;;24.00;54.70;;;;;;6239848;23;20817;-84
2022/02/03 14:44:34;;;;;;;197.23;97.67;;;24.00;54.60;;;;;;6228605;23;20382;-84
2022/02/03 14:47:03;;;;;;;204.03;98.83;;;24.00;54.50;;;;;;6205514;23;20767;-86
2022/02/03 14:49:29;;;;;;;206.17;101.90;;;24.00;54.50;;;;;;6234258;23;20379;-85
2022/02/03 14:52:10;;;;;;;209.17;97.90;;;24.00;54.60;;;;;;6233186;23;20366;-86
2022/02/03 15:00:20;;;;;;;187.37;93.77;;;24.00;54.70;;;;;;6233694;23;20357;-86
2022/02/03 15:02:51;;;;;;;188.47;91.53;;;24.00;54.80;;;;;;6232728;23;20378;-85
2022/02/03 15:05:25;;;;;;;191.90;89.70;;;24.00;54.80;;;;;;6207261;23;20780;-86
2022/02/03 15:07:57;;;;;;;182.37;92.23;;;24.00;54.80;;;;;;6207863;23;20465;-86
2022/02/03 15:13:30;;;;;;;191.33;90.47;;;24.10;54.90;;;;;;6234156;23;20420;-86
2022/02/03 15:15:56;;;;;;;189.10;89.23;;;24.10;54.80;;;;;;6233568;23;20373;-86
2022/02/03 15:21:44;;;;;;;173.83;84.33;;;24.10;54.80;;;;;;6234136;23;20362;-86
2022/02/03 15:24:10;;;;;;;163.33;83.97;;;24.10;54.80;;;;;;6233372;23;20367;-86
2022/02/03 15:26:38;;;;;;;174.73;82.70;;;24.10;54.80;;;;;;6207139;23;20197;-85
2022/02/03 15:29:04;;;;;;;162.70;83.67;;;24.10;54.80;;;;;;6232123;23;20393;-86
2022/02/03 15:31:32;;;;;;;189.40;88.80;;;24.10;54.80;;;;;;6206518;23;20370;-86
2022/02/03 15:40:27;;;;;;;162.67;77.70;;;24.20;54.80;;;;;;6233180;23;20362;-87
2022/02/03 15:43:05;;;;;;;159.73;80.07;;;24.20;54.90;;;;;;6233410;23;20378;-86
2022/02/03 15:45:39;;;;;;;152.00;73.80;;;24.20;54.90;;;;;;6208070;23;20374;-86
2022/02/03 16:01:35;;;;;;;140.57;73.17;;;24.20;54.70;;;;;;6233898;23;20370;-86
2022/02/03 16:17:26;;;;;;;145.97;73.90;;;24.20;54.70;;;;;;6243678;23;20362;-86
2022/02/03 16:22:29;;;;;;;136.13;68.73;;;24.30;54.80;;;;;;6233154;23;20867;-87
2022/02/03 16:25:03;;;;;;;130.80;67.90;;;24.20;54.70;;;;;;6233813;23;20131;-87
2022/02/03 16:50:22;;;;;;;129.07;68.63;;;24.30;54.70;;;;;;6236021;23;20436;-87
2022/02/03 16:54:37;;;;;;;118.77;64.17;;;24.30;54.70;;;;;;6235358;23;20381;-85
2022/02/03 16:57:11;;;;;;;115.23;58.47;;;24.30;54.70;;;;;;6236048;23;20444;-86
2022/02/03 16:59:47;;;;;;;116.10;58.37;;;24.30;54.70;;;;;;6211790;23;20390;-84
2022/02/03 17:02:15;;;;;;;116.57;58.93;;;24.40;54.70;;;;;;6210391;23;20370;-86
2022/02/03 17:04:49;;;;;;;113.37;57.90;;;24.40;54.70;;;;;;6211406;23;20398;-87
2022/02/03 17:07:15;;;;;;;117.03;57.20;;;24.40;54.60;;;;;;6236987;23;20805;-86
2022/02/03 17:09:40;;;;;;;109.83;57.67;;;24.40;54.60;;;;;;6236260;23;20446;-85
2022/02/03 17:12:07;;;;;;;109.80;58.67;;;24.40;54.60;;;;;;6209665;23;20253;-86
2022/02/03 17:14:33;;;;;;;98.93;56.00;;;24.50;54.60;;;;;;6209035;23;20386;-86
2022/02/03 17:16:59;;;;;;;106.30;57.53;;;24.50;54.60;;;;;;6209313;23;20427;-86
2022/02/03 17:19:36;;;;;;;107.27;54.73;;;24.50;54.50;;;;;;6208488;23;20409;-86
2022/02/03 17:22:06;;;;;;;104.40;56.30;;;24.50;54.50;;;;;;6235428;23;20176;-87
2022/02/03 17:24:38;;;;;;;101.70;55.30;;;24.60;54.50;;;;;;6235807;23;20378;-87
2022/02/03 18:19:45;;;;;;;82.73;43.77;;;24.70;54.20;;;;;;6232496;23;20412;-86
2022/02/03 18:32:51;;;;;;;71.53;39.53;;;24.70;54.20;;;;;;6233188;23;20436;-87
2022/02/03 18:46:33;;;;;;;68.80;40.20;;;24.70;54.20;;;;;;6231711;23;20366;-88
2022/02/03 18:51:35;;;;;;;70.17;40.00;;;24.70;54.20;;;;;;6230459;23;20452;-88
2022/02/03 18:56:53;;;;;;;63.27;35.70;;;24.60;54.10;;;;;;6240148;23;20360;-88
2022/02/03 19:10:27;;;;;;;58.60;35.30;;;24.60;54.10;;;;;;6229967;23;20393;-87
2022/02/03 20:08:53;;;;;;;45.43;29.40;;;24.40;54.10;;;;;;6229896;23;20409;-87
2022/02/03 20:14:41;;;;;;;43.33;25.60;;;24.50;54.20;;;;;;6228726;23;20389;-87
2022/02/03 20:17:07;;;;;;;40.50;27.20;;;24.50;54.20;;;;;;6228991;23;20370;-87
2022/02/03 20:19:35;;;;;;;41.77;27.17;;;24.50;54.20;;;;;;6202609;23;20162;-88
2022/02/03 20:22:03;;;;;;;41.03;26.80;;;24.40;54.10;;;;;;6202806;23;20155;-89
2022/02/03 20:24:29;;;;;;;43.47;26.30;;;24.50;54.20;;;;;;6202404;23;20373;-87
2022/02/03 20:26:55;;;;;;;39.37;26.63;;;24.40;54.10;;;;;;6202868;23;20435;-89
2022/02/03 20:29:21;;;;;;;40.73;24.50;;;24.40;54.10;;;;;;6202128;23;20613;-88
2022/02/03 20:31:47;;;;;;;45.13;26.23;;;24.40;54.10;;;;;;6227517;23;20167;-88
2022/02/03 20:34:15;;;;;;;38.30;24.63;;;24.40;54.10;;;;;;6228294;23;20143;-88
2022/02/03 20:36:41;;;;;;;39.97;24.87;;;24.40;54.10;;;;;;6202777;23;20151;-88
2022/02/03 20:39:07;;;;;;;42.57;24.30;;;24.50;54.20;;;;;;6202005;23;20388;-88
2022/02/03 20:41:33;;;;;;;39.97;25.27;;;24.40;54.10;;;;;;6229294;23;20513;-88
2022/02/03 20:43:58;;;;;;;39.20;24.83;;;24.40;54.10;;;;;;6201802;23;20166;-88
2022/02/03 20:46:25;;;;;;;38.10;24.33;;;24.40;54.10;;;;;;6202646;23;20154;-88
2022/02/03 20:48:51;;;;;;;38.50;23.37;;;24.40;54.20;;;;;;6228570;23;20144;-88
2022/02/03 20:51:23;;;;;;;33.60;24.30;;;24.40;54.10;;;;;;6228588;23;20374;-87
2022/02/03 20:53:49;;;;;;;36.30;24.77;;;24.40;54.10;;;;;;6202690;23;20438;-88
2022/02/03 20:56:16;;;;;;;38.70;25.00;;;24.40;54.10;;;;;;6227828;23;20445;-87
2022/02/03 20:58:45;;;;;;;34.47;22.27;;;24.40;54.10;;;;;;6202366;23;20379;-87
2022/02/03 21:01:18;;;;;;;37.53;23.23;;;24.40;54.10;;;;;;6201838;23;20381;-87
2022/02/03 21:03:46;;;;;;;38.53;24.23;;;24.40;54.10;;;;;;6228384;23;20820;-87
2022/02/03 21:06:19;;;;;;;31.73;22.03;;;24.40;54.10;;;;;;6227147;23;20413;-88
2022/02/03 21:08:48;;;;;;;35.10;23.40;;;24.40;54.10;;;;;;6202512;23;20417;-88
2022/02/03 21:11:15;;;;;;;31.53;22.00;;;24.40;54.20;;;;;;6202247;23;20389;-87
2022/02/03 21:13:41;;;;;;;34.70;22.37;;;24.40;54.20;;;;;;6202863;23;20428;-87
2022/02/03 21:16:08;;;;;;;32.20;21.40;;;24.40;54.20;;;;;;6202334;23;20379;-88
2022/02/03 21:18:41;;;;;;;30.17;22.03;;;24.40;54.20;;;;;;6202977;23;20477;-86
2022/02/03 21:21:08;;;;;;;35.40;22.63;;;24.40;54.10;;;;;;6236193;23;20437;-86
2022/02/03 21:23:35;;;;;;;35.20;23.27;;;24.40;54.10;;;;;;6237239;23;20723;-86
2022/02/03 21:26:04;;;;;;;28.33;20.37;;;24.40;54.20;;;;;;6211218;23;20433;-86
2022/02/03 21:28:35;;;;;;;29.40;20.40;;;24.40;54.20;;;;;;6211903;23;20392;-86
2022/02/03 21:31:03;;;;;;;28.93;19.43;;;24.40;54.10;;;;;;6240900;23;20361;-85
2022/02/03 21:33:46;;;;;;;23.43;16.83;;;24.40;54.00;;;;;;6242697;23;20413;-85
2022/02/03 21:36:13;;;;;;;19.77;16.27;;;24.30;53.90;;;;;;6214687;23;20374;-85
2022/02/03 21:38:41;;;;;;;23.40;16.27;;;24.40;53.90;;;;;;6238606;23;20454;-85
2022/02/03 21:41:08;;;;;;;24.67;17.17;;;24.40;53.90;;;;;;6240150;23;20379;-85
2022/02/03 21:43:34;;;;;;;24.37;17.20;;;24.40;53.80;;;;;;6241259;23;20374;-85
2022/02/03 21:46:00;;;;;;;24.63;16.27;;;24.40;53.80;;;;;;6214341;23;20382;-86
2022/02/03 21:48:26;;;;;;;26.17;18.03;;;24.40;53.80;;;;;;6213766;23;20409;-84
2022/02/03 21:50:53;;;;;;;27.33;17.10;;;24.40;53.80;;;;;;6241510;23;20370;-86
2022/02/03 21:53:31;;;;;;;28.77;19.30;;;24.40;53.70;;;;;;6241126;23;20187;-84
2022/02/03 21:55:58;;;;;;;29.00;17.93;;;24.40;53.70;;;;;;6215832;23;20385;-85
2022/02/03 21:58:25;;;;;;;22.70;16.53;;;24.30;53.70;;;;;;6241428;23;20397;-85
2022/02/03 22:00:55;;;;;;;22.97;17.50;;;24.30;53.60;;;;;;6240955;23;20470;-85
2022/02/03 22:10:09;;;;;;;24.17;16.63;;;24.30;53.70;;;;;;6242974;23;20349;-86
2022/02/03 22:12:35;;;;;;;25.77;17.60;;;24.30;53.80;;;;;;6228463;23;20504;-84
2022/02/03 22:15:17;;;;;;;24.07;16.00;;;24.30;54.30;;;;;;6201549;23;20382;-84
2022/02/03 22:17:45;;;;;;;19.03;15.67;;;24.30;53.80;;;;;;6228901;23;20373;-84
2022/02/03 22:20:29;;;;;;;20.90;15.20;;;24.30;53.80;;;;;;6202080;23;20382;-84
2022/02/03 22:26:11;;;;;;;22.60;15.30;;;24.30;53.80;;;;;;6228540;23;20385;-84
2022/02/03 22:29:16;;;;;;;23.33;14.60;;;24.30;53.80;;;;;;6228520;23;20389;-84
2022/02/03 22:42:38;;;;;;;20.60;13.73;;;24.30;53.90;;;;;;6229006;23;20358;-84
2022/02/03 22:50:11;;;;;;;23.60;13.00;;;24.30;53.90;;;;;;6239015;23;20496;-83
2022/02/03 22:52:42;;;;;;;18.87;13.93;;;24.30;53.90;;;;;;6201429;23;20418;-84
2022/02/03 22:55:09;;;;;;;18.53;13.33;;;24.30;54.00;;;;;;6202111;23;20590;-84
2022/02/03 22:57:34;;;;;;;15.23;11.83;;;24.30;54.00;;;;;;6202628;23;20723;-84
2022/02/03 23:00:19;;;;;;;17.20;12.60;;;24.30;54.00;;;;;;6228104;23;20385;-84
2022/02/03 23:02:45;;;;;;;19.10;12.50;;;24.30;54.00;;;;;;6226733;23;20151;-84
2022/02/03 23:05:17;;;;;;;19.13;12.70;;;24.30;54.00;;;;;;6202743;23;20392;-84
2022/02/03 23:08:05;;;;;;;17.30;13.33;;;24.30;54.00;;;;;;6227668;23;20162;-85
2022/02/03 23:10:48;;;;;;;15.10;11.97;;;24.30;54.00;;;;;;6202301;23;20378;-84
2022/02/03 23:13:46;;;;;;;19.33;12.30;;;24.30;54.00;;;;;;6202232;23;20417;-84
2022/02/03 23:16:34;;;;;;;17.57;11.87;;;24.30;54.00;;;;;;6228199;23;20429;-84
2022/02/03 23:19:59;;;;;;;14.13;12.23;;;24.20;54.00;;;;;;6202248;23;20377;-84
2022/02/03 23:22:04;;;;;;;15.37;11.10;;;24.20;54.00;;;;;;6212509;23;20385;-84
2022/02/03 23:24:38;;;;;;;17.23;12.27;;;24.20;54.00;;;;;;6202172;23;20457;-84
2022/02/03 23:29:51;;;;;;;15.97;12.10;;;24.20;54.00;;;;;;6233488;23;20478;-84
2022/02/03 23:32:17;;;;;;;17.20;12.60;;;24.20;54.00;;;;;;6201722;23;20896;-84
2022/02/03 23:34:48;;;;;;;16.50;12.47;;;24.20;54.60;;;;;;6202347;23;20686;-84
2022/02/03 23:37:15;;;;;;;17.97;11.77;;;24.20;54.00;;;;;;6201706;23;20375;-84
